METAR Data
IDs: Format: Raw Decoded Include TAF

Data at: 0123 UTC 24 Sep 2018

KHSA 240050Z 12005KT 10SM SKC 27/23 A2991
KHSA 232350Z 14004KT 10SM SKC 27/23 A2991
KHSA 232250Z 14004KT 10SM SCT030 29/23 A2991
KHSA 232150Z 15006KT 10SM SCT030 31/23 A2990
KHSA 232050Z 15006KT 10SM SCT033 30/22 A2991
KHSA 231950Z 16006KT 10SM SCT060 30/23 A2991
KHSA 231850Z 13008KT 10SM SCT035 31/22 A2994
KHSA 231748Z 12008KT 10SM SCT035 30/23 A2997
KHSA 231655Z 12005KT 10SM SCT030 31/23 A2998
KHSA 231552Z 14007KT 10SM SCT028 29/24 A2999
KHSA 231451Z VRB03KT 10SM SCT030 29/23 A2999
KHSA 231353Z VRB03KT 7SM FEW011 SCT030 26/23 A2999
KHSA 231252Z VRB03KT 7SM SCT025 25/22 A2997
KHSA 231150Z VRB03KT 7SM FEW009 SCT024 24/21 A2996
KHSA 230146Z 00000KT 7SM SKC 27/24 A2998
KHSA 230050Z 00000KT 7SM SCT035 27/24 A2995
KHSA 222352Z 00000KT 7SM SKC 28/24 A2995
KHSA 222259Z 14006KT 7SM SKC 30/23 A2995
KHSA 222152Z 18009KT 7SM SCT040 31/23 A2995
KHSA 222053Z 16008KT 7SM SCT035 31/23 A2995
KHSA 221953Z 18009KT 7SM SCT030 SCT055 31/24 A2996
KHSA 221850Z 18008KT 7SM SCT030 31/23 A2998
KHSA 221751Z 18005KT 7SM SCT030 29/24 A3001
KHSA 221651Z 13006KT 7SM SCT027 29/23 A3003
KHSA 221550Z 12008KT 7SM SCT022 SCT030 29/24 A3003
KHSA 221450Z VRB003KT 7SM SCT060 28/24 A3002
KHSA 221350Z VRB003KT 7SM SCT060 27/23 A3002